Time;durP1;ratioP1;P1;durP2;ratioP2;P2;SDS_P1;SDS_P2;PMS_P1;PMS_P2;Temp;Humidity;BMP_temperature;BMP_pressure;BME280_temperature;BME280_humidity;BME280_pressure;Samples;Min_cycle;Max_cycle;Signal;HPM_P1;HPM_P2
2021/12/24 00:01:18;;;;;;;39.90;19.33;;;;;;;1.92;59.73;99502.94;4332612;33;33191;-87
2021/12/24 00:03:47;;;;;;;42.47;19.70;;;;;;;2.31;58.64;99502.34;4331757;33;33135;-87
2021/12/24 00:06:15;;;;;;;39.47;19.80;;;;;;;2.51;57.49;99499.44;4316678;33;32683;-87
2021/12/24 00:08:45;;;;;;;41.08;20.25;;;;;;;2.67;57.06;99494.84;4327720;33;33261;-87
2021/12/24 00:11:15;;;;;;;39.22;18.85;;;;;;;2.58;57.65;99481.97;4338531;33;34213;-87
2021/12/24 00:13:47;;;;;;;39.40;19.00;;;;;;;2.26;58.79;99498.94;4328887;33;32607;-88
2021/12/24 00:19:01;;;;;;;39.38;20.95;;;;;;;2.20;59.21;99496.44;4334955;33;34064;-87
2021/12/24 00:22:39;;;;;;;40.40;20.42;;;;;;;2.17;59.46;99482.59;4333832;33;32499;-89
2021/12/24 00:35:32;;;;;;;42.22;21.20;;;;;;;2.58;57.92;99436.78;4341054;32;32531;-85
2021/12/24 00:38:06;;;;;;;42.90;20.60;;;;;;;2.34;58.36;99438.06;4326159;33;32500;-85
2021/12/24 00:40:37;;;;;;;40.25;19.67;;;;;;;2.20;59.05;99431.31;4335166;33;33358;-85
2021/12/24 00:43:05;;;;;;;44.63;19.85;;;;;;;2.39;58.67;99418.88;4338287;33;34440;-85
2021/12/24 00:45:36;;;;;;;43.97;21.23;;;;;;;2.62;57.49;99397.63;4315741;33;34567;-85
2021/12/24 00:48:04;;;;;;;42.22;21.23;;;;;;;2.47;58.30;99408.28;4322605;33;32784;-85
2021/12/24 00:50:52;;;;;;;42.25;21.65;;;;;;;2.17;59.46;99399.25;4327743;33;31988;-85
2021/12/24 00:56:11;;;;;;;43.95;20.77;;;;;;;2.53;57.92;99376.94;4346533;33;34483;-84
2021/12/24 00:58:39;;;;;;;46.20;21.00;;;;;;;2.50;58.17;99370.00;4329483;33;34062;-86
2021/12/24 01:01:11;;;;;;;43.83;22.33;;;;;;;2.55;57.73;99360.37;4319360;33;33573;-84
2021/12/24 01:03:39;;;;;;;41.47;22.13;;;;;;;2.17;58.49;99348.00;4334072;33;33015;-85
2021/12/24 01:06:06;;;;;;;41.17;19.83;;;;;;;1.82;60.50;99360.75;4326862;33;34159;-85
2021/12/24 01:08:34;;;;;;;45.08;21.67;;;;;;;2.42;58.73;99342.38;4327319;33;34100;-85
2021/12/24 01:11:04;;;;;;;43.13;21.02;;;;;;;2.40;58.13;99318.09;4334037;33;34075;-85
2021/12/24 01:13:32;;;;;;;38.40;18.45;;;;;;;1.97;59.46;99308.44;4334820;33;33474;-85
2021/12/24 01:16:06;;;;;;;38.85;20.42;;;;;;;1.75;60.83;99319.19;4335842;33;32355;-85
2021/12/24 01:21:22;;;;;;;50.60;22.02;;;;;;;2.01;60.16;99310.09;4341977;32;33022;-85
2021/12/24 01:23:53;;;;;;;44.35;21.08;;;;;;;2.18;59.71;99292.41;4328097;33;34184;-86
2021/12/24 01:26:52;;;;;;;44.83;21.60;;;;;;;2.03;60.00;99287.50;4339337;33;33696;-86
2021/12/24 01:29:42;;;;;;;43.17;20.70;;;;;;;1.79;60.88;99289.63;4340480;32;33342;-86
2021/12/24 01:37:58;;;;;;;42.72;21.45;;;;;;;1.51;62.28;99319.56;4334984;33;33283;-86
2021/12/24 01:40:50;;;;;;;37.10;20.08;;;;;;;2.03;60.78;99323.94;4326762;33;33207;-86
2021/12/24 01:43:16;;;;;;;46.22;20.08;;;;;;;2.16;60.53;99332.41;4338239;33;33911;-86
2021/12/24 01:45:50;;;;;;;43.05;20.05;;;;;;;2.26;59.82;99300.97;4333757;33;33916;-86
2021/12/24 01:48:19;;;;;;;50.85;22.17;;;;;;;2.41;59.55;99309.38;4341122;33;34788;-86
2021/12/24 01:50:47;;;;;;;53.53;24.52;;;;;;;1.74;61.29;99309.66;4338547;33;33574;-85
2021/12/24 01:53:17;;;;;;;43.55;20.42;;;;;;;2.17;60.15;99295.91;4332971;33;32567;-86
2021/12/24 01:55:50;;;;;;;42.35;20.98;;;;;;;1.83;61.82;99294.78;4328749;33;33185;-83
2021/12/24 01:58:24;;;;;;;;;;;;;;;1.89;61.51;99284.25;4334704;33;34553;-83
2021/12/24 02:00:55;;;;;;;44.17;19.55;;;;;;;2.30;60.01;99283.53;4337829;33;35166;-83
2021/12/24 02:03:23;;;;;;;44.95;21.67;;;;;;;2.34;60.16;99281.75;4316396;33;32964;-85
2021/12/24 02:05:51;;;;;;;43.85;20.70;;;;;;;2.47;59.16;99276.28;4333193;33;33797;-84
2021/12/24 02:08:19;;;;;;;49.50;21.87;;;;;;;2.52;59.44;99274.44;4341503;33;33607;-84
2021/12/24 02:10:49;;;;;;;42.35;22.13;;;;;;;2.25;60.35;99273.22;4337942;33;32651;-84
2021/12/24 02:13:17;;;;;;;49.42;23.33;;;;;;;2.10;60.86;99265.69;4316325;33;32331;-84
2021/12/24 02:29:37;;;;;;;45.75;22.23;;;;;;;1.97;61.86;99222.50;4340997;32;33377;-84
2021/12/24 02:32:06;;;;;;;42.35;21.17;;;;;;;2.19;61.31;99229.03;4315443;33;32277;-83
2021/12/24 02:34:33;;;;;;;47.80;21.77;;;;;;;2.00;61.73;99235.47;4320220;33;32733;-84
2021/12/24 02:37:01;;;;;;;47.62;21.33;;;;;;;2.14;61.50;99230.87;4327124;33;33266;-84
2021/12/24 02:39:29;;;;;;;41.80;20.83;;;;;;;2.37;60.80;99193.94;4339212;33;33636;-84
2021/12/24 02:42:12;;;;;;;50.20;21.95;;;;;;;2.29;60.84;99194.13;4328223;33;32880;-84
2021/12/24 02:44:40;;;;;;;46.47;21.85;;;;;;;2.64;59.69;99187.31;4338815;33;33212;-86
2021/12/24 02:55:16;;;;;;;43.33;20.67;;;;;;;2.96;58.75;99131.00;4338544;32;32545;-86
2021/12/24 02:57:44;;;;;;;41.37;21.02;;;;;;;2.74;59.13;99141.03;4340009;32;33125;-86
2021/12/24 03:00:16;;;;;;;47.47;23.62;;;;;;;2.27;60.54;99155.94;4327226;33;33759;-86
2021/12/24 03:02:46;;;;;;;43.08;19.87;;;;;;;2.34;60.78;99156.69;4329300;33;34230;-85
2021/12/24 03:05:16;;;;;;;46.72;22.23;;;;;;;2.79;59.05;99165.25;4327154;33;33405;-86
2021/12/24 03:07:45;;;;;;;47.67;21.62;;;;;;;2.79;59.01;99160.91;4332812;33;34186;-85
2021/12/24 03:10:17;;;;;;;44.78;22.05;;;;;;;2.51;60.25;99180.63;4321732;33;33758;-85
2021/12/24 03:12:47;;;;;;;46.70;23.42;;;;;;;2.26;61.14;99186.34;4335703;33;33854;-84
2021/12/24 03:15:16;;;;;;;46.03;21.17;;;;;;;2.63;60.22;99206.44;4313465;33;31652;-87
2021/12/24 03:17:50;;;;;;;42.00;21.67;;;;;;;2.44;60.67;99194.69;4334437;33;32732;-89
2021/12/24 03:20:18;;;;;;;43.42;21.80;;;;;;;2.63;60.23;99218.63;4332183;33;34469;-87
2021/12/24 03:23:05;;;;;;;45.22;23.02;;;;;;;2.70;59.75;99208.03;4330303;33;33892;-88
2021/12/24 03:25:33;;;;;;;47.33;22.15;;;;;;;2.51;60.65;99211.91;4339269;33;32643;-86
2021/12/24 03:28:01;;;;;;;45.40;22.08;;;;;;;2.59;60.89;99210.00;4328267;33;32828;-86
2021/12/24 03:30:29;;;;;;;42.50;22.25;;;;;;;2.49;61.44;99204.12;4340431;33;34770;-87
2021/12/24 03:32:57;;;;;;;44.53;21.87;;;;;;;2.42;61.93;99170.41;4339860;33;34027;-89
2021/12/24 03:35:25;;;;;;;42.58;21.83;;;;;;;2.66;61.50;99180.31;4339713;33;33240;-89
2021/12/24 03:37:53;;;;;;;47.45;21.98;;;;;;;2.52;61.85;99175.41;4329814;33;32679;-89
2021/12/24 03:40:21;;;;;;;46.03;21.73;;;;;;;2.55;62.31;99180.53;4322379;33;33835;-89
2021/12/24 03:42:49;;;;;;;41.28;20.92;;;;;;;2.36;63.04;99166.19;4341386;33;33979;-89
2021/12/24 03:45:26;;;;;;;46.42;22.62;;;;;;;2.81;61.62;99172.16;4326494;33;33464;-86
2021/12/24 03:47:59;;;;;;;41.20;20.92;;;;;;;2.61;62.41;99163.94;4338850;33;32654;-89
2021/12/24 03:50:43;;;;;;;42.30;21.45;;;;;;;2.62;62.25;99151.75;4325053;33;32420;-87
2021/12/24 03:55:58;;;;;;;52.33;23.52;;;;;;;2.65;62.37;99144.69;4336482;33;32769;-87
2021/12/24 03:58:27;;;;;;;52.58;22.87;;;;;;;2.38;63.17;99147.94;4316852;33;33522;-87
2021/12/24 04:00:59;;;;;;;42.08;21.77;;;;;;;2.60;62.65;99149.16;4321870;33;32820;-87
2021/12/24 04:03:32;;;;;;;51.95;22.70;;;;;;;2.77;62.06;99134.00;4314212;33;33536;-87
2021/12/24 04:06:02;;;;;;;49.38;23.38;;;;;;;2.76;62.10;99121.03;4332412;33;32992;-87
2021/12/24 04:08:33;;;;;;;45.08;21.83;;;;;;;2.90;61.82;99120.72;4325301;33;32778;-87
2021/12/24 04:11:04;;;;;;;43.03;21.73;;;;;;;2.74;62.08;99112.38;4313719;33;32902;-89
2021/12/24 04:13:33;;;;;;;43.75;21.83;;;;;;;2.64;62.43;99114.31;4313891;33;32324;-91
2021/12/24 04:16:25;;;;;;;42.50;20.92;;;;;;;2.82;62.02;99108.69;4326971;33;31766;-91
2021/12/24 04:24:58;;;;;;;43.50;20.88;;;;;;;3.00;61.53;99081.31;4354272;32;33009;-83
2021/12/24 04:27:29;;;;;;;45.65;21.50;;;;;;;3.11;61.17;99070.63;4341907;32;33866;-83
2021/12/24 04:30:11;;;;;;;43.85;21.55;;;;;;;3.01;61.26;99074.34;4345143;32;33394;-85
2021/12/24 04:51:23;;;;;;;47.60;22.33;;;;;;;2.81;61.84;99067.88;4345097;32;32627;-83
2021/12/24 05:04:55;;;;;;;40.92;19.80;;;;;;;2.86;62.45;99046.06;4365598;32;34826;-82
2021/12/24 05:10:15;;;;;;;40.53;20.50;;;;;;;3.09;61.71;99048.94;4366412;32;33571;-83
2021/12/24 05:12:43;;;;;;;40.25;21.00;;;;;;;3.33;60.73;99043.09;4342412;32;34326;-82
2021/12/24 05:15:11;;;;;;;43.92;20.40;;;;;;;2.97;61.86;99049.25;4352746;32;33879;-87
2021/12/24 05:23:02;;;;;;;37.60;19.95;;;;;;;2.63;63.01;99057.03;4344708;32;33258;-88
2021/12/24 05:25:58;;;;;;;45.47;22.05;;;;;;;2.95;62.02;99044.06;4347486;32;32685;-91
2021/12/24 05:29:03;;;;;;;;;;;;;;;2.99;61.77;99042.22;4326386;33;33629;-92
2021/12/24 05:32:07;;;;;;;41.53;19.90;;;;;;;2.88;61.99;99045.09;4328326;33;32265;-92
2021/12/24 05:35:04;;;;;;;39.35;19.85;;;;;;;2.91;62.03;99052.88;4352023;32;33130;-90
2021/12/24 05:37:35;;;;;;;49.55;21.25;;;;;;;2.83;62.46;99055.66;4345369;32;33677;-90
2021/12/24 05:40:18;;;;;;;42.25;20.83;;;;;;;2.68;62.94;99048.19;4352764;32;32446;-90
2021/12/24 05:42:48;;;;;;;46.13;22.10;;;;;;;2.93;62.31;99038.03;4344547;33;32390;-89
2021/12/24 05:45:16;;;;;;;47.08;22.65;;;;;;;3.11;61.73;99044.53;4337943;32;33133;-90
2021/12/24 05:47:48;;;;;;;;;;;;;;;2.97;62.21;99065.75;4334659;32;33170;-89
2021/12/24 05:50:16;;;;;;;44.33;21.17;;;;;;;2.98;62.35;99061.38;4354199;32;34337;-89
2021/12/24 05:52:50;;;;;;;41.17;20.42;;;;;;;2.99;61.63;99061.38;4343001;32;32396;-89
2021/12/24 05:55:18;;;;;;;40.60;20.88;;;;;;;2.92;61.82;99075.44;4333564;32;33542;-89
2021/12/24 05:57:48;;;;;;;51.37;23.17;;;;;;;2.88;62.14;99073.78;4341200;32;32684;-90
2021/12/24 06:00:22;;;;;;;47.08;20.95;;;;;;;2.82;62.12;99064.37;4344258;32;33373;-89
2021/12/24 06:02:50;;;;;;;40.88;20.62;;;;;;;2.91;61.91;99084.16;4341245;32;33455;-90
2021/12/24 06:05:18;;;;;;;46.58;22.25;;;;;;;2.82;62.33;99095.66;4352128;32;32540;-90
2021/12/24 06:07:46;;;;;;;40.90;20.92;;;;;;;3.15;61.21;99074.88;4339460;32;33381;-89
2021/12/24 06:10:14;;;;;;;41.90;20.80;;;;;;;2.66;62.78;99077.78;4347085;32;33798;-89
2021/12/24 06:12:42;;;;;;;47.53;20.77;;;;;;;2.72;63.07;99072.47;4353963;32;32878;-89
2021/12/24 06:15:10;;;;;;;39.35;21.25;;;;;;;2.98;62.28;99071.81;4344843;32;33273;-84
2021/12/24 06:17:39;;;;;;;47.22;24.15;;;;;;;2.46;64.24;99060.88;4352233;32;34446;-85
2021/12/24 06:20:10;;;;;;;48.22;22.55;;;;;;;2.59;64.06;99060.59;4351586;32;32805;-84
2021/12/24 06:22:38;;;;;;;45.17;22.53;;;;;;;2.55;63.96;99059.81;4334535;32;33139;-86
2021/12/24 06:25:06;;;;;;;46.00;23.65;;;;;;;2.77;63.57;99053.19;4348194;32;33808;-85
2021/12/24 06:27:33;;;;;;;44.33;21.83;;;;;;;2.76;63.48;99054.09;4353290;32;33426;-86
2021/12/24 06:30:04;;;;;;;49.75;23.80;;;;;;;2.92;63.16;99051.09;4349876;32;34306;-86
2021/12/24 06:32:32;;;;;;;47.03;23.42;;;;;;;2.85;63.15;99031.28;4338960;32;33338;-85
2021/12/24 06:34:59;;;;;;;43.17;22.10;;;;;;;2.65;63.33;99045.66;4335885;33;33118;-85
2021/12/24 06:37:27;;;;;;;44.67;21.37;;;;;;;2.81;62.62;99023.56;4317789;33;33085;-84
2021/12/24 06:39:55;;;;;;;53.42;24.12;;;;;;;2.63;63.41;99037.03;4321445;33;33810;-84
2021/12/24 06:42:26;;;;;;;47.40;23.62;;;;;;;2.75;63.02;99028.94;4329164;33;34101;-84
2021/12/24 06:44:54;;;;;;;41.60;21.45;;;;;;;2.81;62.88;99054.00;4321625;33;34251;-87
2021/12/24 06:47:22;;;;;;;46.55;21.60;;;;;;;2.93;62.62;99037.16;4318186;33;33203;-87
2021/12/24 06:49:50;;;;;;;41.30;21.60;;;;;;;3.07;62.26;99029.84;4330339;33;33444;-85
2021/12/24 06:52:18;;;;;;;46.40;22.37;;;;;;;3.04;62.57;99030.81;4341502;33;33526;-85
2021/12/24 06:54:45;;;;;;;46.03;21.98;;;;;;;2.98;62.77;99030.94;4330432;33;34208;-85
2021/12/24 06:57:17;;;;;;;42.75;21.92;;;;;;;3.11;62.67;99030.63;4321410;33;33557;-85
2021/12/24 06:59:47;;;;;;;39.70;20.92;;;;;;;3.08;62.83;99032.41;4312812;33;32503;-85
2021/12/24 07:02:14;;;;;;;45.72;22.58;;;;;;;2.90;63.39;99037.28;4306004;33;32608;-84
2021/12/24 07:04:42;;;;;;;50.88;24.30;;;;;;;2.98;63.32;99032.69;4331938;33;32640;-84
2021/12/24 07:07:10;;;;;;;50.15;24.63;;;;;;;3.06;63.28;99030.75;4330207;33;34757;-84
2021/12/24 07:09:42;;;;;;;43.90;22.83;;;;;;;3.10;63.17;99040.22;4317730;33;34873;-85
2021/12/24 07:12:12;;;;;;;52.30;23.83;;;;;;;3.57;61.46;99036.34;4302473;33;33708;-85
2021/12/24 07:14:40;;;;;;;53.92;27.73;;;;;;;3.44;61.94;99039.34;4329184;33;34268;-85
2021/12/24 07:17:09;;;;;;;46.80;24.30;;;;;;;2.99;63.96;99026.56;4329015;33;33286;-85
2021/12/24 07:19:37;;;;;;;42.62;22.65;;;;;;;3.54;62.39;99041.66;4309362;33;33051;-87
2021/12/24 07:22:04;;;;;;;44.13;22.05;;;;;;;2.95;64.68;99031.03;4321257;33;33115;-87
2021/12/24 07:24:34;;;;;;;47.53;23.85;;;;;;;2.92;65.65;99046.75;4329812;33;34128;-86
2021/12/24 07:27:03;;;;;;;44.40;21.35;;;;;;;2.90;65.99;99032.91;4317151;33;34022;-88
2021/12/24 07:29:31;;;;;;;49.85;22.77;;;;;;;2.75;66.76;99036.75;4311507;33;33759;-89
2021/12/24 07:31:59;;;;;;;47.67;23.05;;;;;;;3.00;66.11;99049.19;4328854;33;32051;-89
2021/12/24 07:34:27;;;;;;;45.40;22.75;;;;;;;3.12;65.91;99042.78;4332379;32;32490;-88
2021/12/24 07:36:55;;;;;;;44.42;22.25;;;;;;;3.56;64.31;99049.41;4338463;32;34853;-88
2021/12/24 07:39:23;;;;;;;43.25;22.48;;;;;;;3.20;65.60;99057.34;4331848;32;33074;-87
2021/12/24 07:41:52;;;;;;;40.38;19.17;;;;;;;3.15;66.18;99050.53;4330376;32;32517;-88
2021/12/24 07:44:20;;;;;;;53.85;22.80;;;;;;;3.42;65.50;99067.22;4350765;32;34592;-88
2021/12/24 07:46:56;;;;;;;42.90;22.13;;;;;;;3.24;65.62;99058.97;4351000;32;32822;-88
2021/12/24 07:52:11;;;;;;;42.65;21.35;;;;;;;3.08;66.12;99037.62;4352624;32;32048;-93
2021/12/24 07:54:53;;;;;;;43.38;19.67;;;;;;;3.58;64.52;99022.38;4332461;32;32376;-90
2021/12/24 07:57:58;;;;;;;38.55;19.20;;;;;;;3.55;64.46;99016.41;4322447;32;32871;-92
2021/12/24 08:00:41;;;;;;;41.50;20.17;;;;;;;3.86;63.80;98992.88;4327968;33;33251;-91
2021/12/24 08:03:33;;;;;;;;;;;;;;;3.93;63.40;99006.62;4355196;32;32428;-89
2021/12/24 08:06:13;;;;;;;46.05;19.42;;;;;;;4.34;61.76;98997.53;4337735;33;32899;-90
2021/12/24 08:08:55;;;;;;;40.50;20.10;;;;;;;4.10;62.33;99001.75;4354360;32;33252;-91
2021/12/24 08:11:37;;;;;;;41.20;20.67;;;;;;;3.57;63.86;99012.00;4356676;32;33052;-92
2021/12/24 08:14:24;;;;;;;45.47;23.35;;;;;;;3.92;63.75;98999.69;4343631;32;32491;-91
2021/12/24 08:17:16;;;;;;;47.67;22.10;;;;;;;4.29;61.94;98996.81;4305041;33;32650;-91
2021/12/24 08:20:05;;;;;;;43.70;20.50;;;;;;;4.40;61.78;98975.56;4327772;33;33590;-91
2021/12/24 08:22:46;;;;;;;41.30;19.87;;;;;;;4.33;62.55;98998.44;4376042;32;32525;-89
2021/12/24 08:25:31;;;;;;;45.08;21.35;;;;;;;4.09;63.85;99002.66;4325888;33;32721;-91
2021/12/24 08:28:28;;;;;;;45.00;24.10;;;;;;;4.29;63.32;98984.59;4311934;33;32886;-91
2021/12/24 08:30:56;;;;;;;57.30;28.67;;;;;;;4.41;62.34;98977.25;4311282;33;33186;-88
2021/12/24 08:33:24;;;;;;;53.40;27.23;;;;;;;3.89;64.54;98968.41;4313012;33;34543;-89
2021/12/24 08:35:52;;;;;;;53.40;26.15;;;;;;;4.41;63.31;98977.25;4314172;33;33368;-89
2021/12/24 08:38:20;;;;;;;53.83;27.05;;;;;;;4.32;63.42;98981.91;4299831;33;33762;-90
2021/12/24 08:40:49;;;;;;;48.65;23.85;;;;;;;4.49;63.28;98977.88;4312997;33;33302;-89
2021/12/24 08:43:16;;;;;;;40.12;21.42;;;;;;;4.72;62.52;98971.91;4311788;33;33402;-89
2021/12/24 08:45:44;;;;;;;45.10;21.48;;;;;;;4.62;63.42;98961.75;4306547;33;32551;-89
2021/12/24 08:48:12;;;;;;;48.75;23.12;;;;;;;4.72;62.93;98951.84;4312356;33;33566;-89
2021/12/24 08:50:41;;;;;;;42.67;22.17;;;;;;;5.00;62.88;98966.59;4311538;33;33211;-89
2021/12/24 08:53:09;;;;;;;38.60;20.62;;;;;;;4.74;64.18;98970.94;4326490;33;32666;-89
2021/12/24 08:55:37;;;;;;;43.05;20.77;;;;;;;5.08;63.34;98969.78;4312410;33;34452;-89
2021/12/24 08:58:05;;;;;;;41.90;20.17;;;;;;;5.20;63.29;98968.53;4323478;33;33714;-89
2021/12/24 09:00:33;;;;;;;46.10;20.30;;;;;;;5.40;63.18;98966.91;4311966;33;33471;-88
2021/12/24 09:03:02;;;;;;;32.33;17.25;;;;;;;5.22;63.83;98966.69;4309224;33;32896;-88
2021/12/24 09:05:31;;;;;;;32.35;16.98;;;;;;;5.33;64.19;98965.44;4296738;33;32202;-89
2021/12/24 09:07:59;;;;;;;32.75;16.83;;;;;;;5.90;61.98;98955.47;4305909;33;32362;-89
2021/12/24 09:10:27;;;;;;;33.75;16.20;;;;;;;5.86;62.13;98952.09;4321182;33;33929;-90
2021/12/24 09:12:55;;;;;;;29.65;15.27;;;;;;;5.72;63.27;98954.41;4310689;33;32152;-90
2021/12/24 09:15:30;;;;;;;25.50;12.70;;;;;;;5.70;64.01;98961.47;4310528;33;32602;-89
2021/12/24 09:18:00;;;;;;;24.95;12.88;;;;;;;5.80;62.67;98964.59;4307459;33;33627;-89
2021/12/24 09:20:37;;;;;;;27.70;13.23;;;;;;;5.87;63.15;98961.66;4311980;33;34359;-89
2021/12/24 09:23:09;;;;;;;27.60;14.20;;;;;;;5.84;62.77;98960.94;4316502;33;32950;-89
2021/12/24 09:25:37;;;;;;;31.58;14.57;;;;;;;6.06;62.69;98961.00;4309376;33;33434;-89
2021/12/24 09:28:05;;;;;;;28.80;14.87;;;;;;;6.49;61.25;98949.66;4329607;33;33240;-89
2021/12/24 09:30:34;;;;;;;26.70;14.18;;;;;;;6.74;61.48;98943.41;4330293;33;32644;-90
2021/12/24 09:33:04;;;;;;;32.78;17.35;;;;;;;6.56;62.22;98942.41;4317318;33;32828;-89
2021/12/24 09:35:32;;;;;;;35.55;19.20;;;;;;;6.80;61.17;98925.66;4328130;33;101051;-90
2021/12/24 09:38:02;;;;;;;33.35;18.15;;;;;;;6.73;61.25;98926.81;4306832;33;35434;-91
2021/12/24 09:40:33;;;;;;;36.65;17.12;;;;;;;7.17;60.04;98916.19;4309356;33;32731;-90
2021/12/24 09:43:02;;;;;;;39.90;19.23;;;;;;;6.84;61.21;98919.34;4318253;33;33805;-90
2021/12/24 09:45:29;;;;;;;34.60;18.17;;;;;;;7.15;60.25;98912.78;4331001;33;32349;-89
2021/12/24 09:47:58;;;;;;;37.85;19.98;;;;;;;6.70;62.83;98911.22;4328727;33;32883;-90
2021/12/24 09:50:28;;;;;;;41.33;23.35;;;;;;;6.60;63.38;98899.41;4318024;33;32965;-90
2021/12/24 09:52:56;;;;;;;36.60;19.12;;;;;;;6.64;62.64;98895.72;4319635;33;33625;-90
2021/12/24 09:55:29;;;;;;;36.25;22.58;;;;;;;6.64;62.24;98890.47;4330502;33;33133;-89
2021/12/24 09:57:57;;;;;;;33.40;17.37;;;;;;;6.78;61.90;98895.97;4331321;33;33566;-90
2021/12/24 10:00:26;;;;;;;57.22;22.65;;;;;;;6.67;60.89;98891.19;4330782;33;34658;-89
2021/12/24 10:02:56;;;;;;;105.25;41.63;;;;;;;6.98;60.35;98876.78;4329437;33;32813;-89
2021/12/24 10:05:46;;;;;;;57.47;28.05;;;;;;;7.27;60.20;98870.22;4330820;33;33729;-89
2021/12/24 10:08:18;;;;;;;36.78;19.50;;;;;;;7.71;58.66;98875.22;4331178;33;33903;-90
2021/12/24 10:10:51;;;;;;;30.95;16.75;;;;;;;7.76;58.31;98875.00;4325072;33;33033;-89
2021/12/24 10:13:27;;;;;;;31.60;16.05;;;;;;;7.58;58.77;98859.16;4331022;33;33932;-90
2021/12/24 10:16:09;;;;;;;33.80;16.60;;;;;;;7.66;59.60;98850.94;4329715;33;33612;-89
2021/12/24 10:18:47;;;;;;;25.55;14.25;;;;;;;7.72;59.14;98848.00;4318045;33;34510;-90
2021/12/24 10:21:24;;;;;;;25.85;14.90;;;;;;;8.11;57.90;98842.59;4331446;33;34516;-90
2021/12/24 10:23:56;;;;;;;30.48;15.65;;;;;;;8.49;56.21;98841.66;4342298;33;35003;-90
2021/12/24 10:26:36;;;;;;;24.83;14.02;;;;;;;8.39;55.86;98847.38;4334890;32;32328;-90
2021/12/24 10:29:09;;;;;;;26.37;14.27;;;;;;;8.31;56.27;98843.41;4326950;32;34133;-90
2021/12/24 10:31:55;;;;;;;31.37;14.75;;;;;;;8.43;56.29;98842.81;4339557;32;34017;-90
2021/12/24 10:34:34;;;;;;;30.45;15.43;;;;;;;8.27;56.95;98845.34;4335324;32;34096;-90
2021/12/24 10:37:23;;;;;;;27.70;14.30;;;;;;;8.49;56.49;98841.66;4327920;32;33178;-90
2021/12/24 10:39:59;;;;;;;26.62;12.70;;;;;;;8.57;55.25;98839.50;4326869;32;33390;-90
2021/12/24 10:42:37;;;;;;;27.25;13.48;;;;;;;8.71;55.32;98839.66;4327373;32;33280;-90
2021/12/24 10:45:16;;;;;;;25.73;13.70;;;;;;;8.46;56.06;98835.63;4339834;32;33388;-90
2021/12/24 10:47:46;;;;;;;22.87;12.95;;;;;;;8.37;57.93;98843.16;4325074;32;32504;-89
2021/12/24 10:50:37;;;;;;;24.23;12.73;;;;;;;8.66;55.85;98833.78;4326750;32;33820;-90
2021/12/24 10:53:32;;;;;;;28.15;12.70;;;;;;;8.43;57.24;98832.31;4341783;32;32714;-90
2021/12/24 10:56:24;;;;;;;25.45;13.27;;;;;;;8.38;57.91;98831.69;4342153;32;33627;-90
2021/12/24 10:58:52;;;;;;;28.08;14.10;;;;;;;8.71;56.94;98829.13;4330256;32;35059;-90
2021/12/24 11:01:22;;;;;;;24.63;12.60;;;;;;;9.13;55.21;98817.28;4329097;32;32537;-90
2021/12/24 11:03:51;;;;;;;29.37;14.35;;;;;;;8.93;56.08;98820.97;4337443;32;33342;-90
2021/12/24 11:06:21;;;;;;;29.77;14.93;;;;;;;9.23;55.29;98818.47;4325424;32;32507;-89
2021/12/24 11:08:54;;;;;;;28.12;14.85;;;;;;;8.90;57.37;98821.13;4339447;32;33488;-90
2021/12/24 11:11:22;;;;;;;;;;;;;;;9.24;55.28;98825.44;4327353;32;32919;-89
2021/12/24 11:13:52;;;;;;;26.40;15.02;;;;;;;8.85;57.88;98821.38;4341806;32;33965;-89
2021/12/24 11:16:21;;;;;;;26.60;14.18;;;;;;;9.04;57.68;98817.75;4342310;32;33718;-90
2021/12/24 11:19:01;;;;;;;22.08;10.68;;;;;;;9.26;57.28;98828.88;4327871;32;32703;-91
2021/12/24 11:21:32;;;;;;;15.20;8.00;;;;;;;9.16;56.55;98811.81;4315178;32;32621;-90
2021/12/24 11:24:00;;;;;;;16.27;8.38;;;;;;;8.57;57.50;98810.56;4331218;32;33066;-91
2021/12/24 11:26:32;;;;;;;13.18;7.50;;;;;;;9.10;56.52;98807.75;4324725;32;33266;-91
2021/12/24 11:29:00;;;;;;;14.55;8.35;;;;;;;9.60;55.21;98812.06;4327898;32;32155;-91
2021/12/24 11:31:30;;;;;;;16.37;7.50;;;;;;;9.78;54.04;98814.59;4328216;32;32859;-91
2021/12/24 11:33:59;;;;;;;14.40;6.47;;;;;;;9.44;55.45;98819.94;4328143;32;34022;-91
2021/12/24 11:36:29;;;;;;;14.75;7.12;;;;;;;9.40;55.41;98815.78;4330760;32;32625;-90
2021/12/24 11:38:59;;;;;;;10.75;6.75;;;;;;;9.73;54.42;98797.25;4342001;32;33410;-91
2021/12/24 11:41:31;;;;;;;14.00;7.28;;;;;;;10.05;53.50;98804.25;4329672;32;33808;-91
2021/12/24 11:44:05;;;;;;;;;;;;;;;10.28;52.58;98787.16;4342262;32;33833;-91
2021/12/24 11:46:34;;;;;;;12.98;7.55;;;;;;;10.23;52.82;98784.75;4329932;32;33058;-91
2021/12/24 11:49:02;;;;;;;12.43;7.25;;;;;;;9.96;54.39;98787.19;4330276;32;32203;-91
2021/12/24 11:51:40;;;;;;;12.43;6.87;;;;;;;10.12;53.33;98787.16;4316859;32;32365;-90
2021/12/24 11:54:09;;;;;;;11.38;6.82;;;;;;;10.25;53.55;98788.16;4327258;32;33751;-91
2021/12/24 11:56:47;;;;;;;13.30;7.05;;;;;;;10.44;53.29;98799.34;4328659;32;33114;-91
2021/12/24 11:59:16;;;;;;;11.27;5.82;;;;;;;10.22;53.19;98791.81;4329064;32;34187;-91
2021/12/24 12:01:45;;;;;;;12.15;7.35;;;;;;;10.49;52.91;98785.88;4342625;32;33794;-91
2021/12/24 12:04:22;;;;;;;13.77;7.45;;;;;;;10.40;53.71;98781.16;4329067;32;33371;-91
2021/12/24 12:06:51;;;;;;;13.73;7.37;;;;;;;10.59;53.56;98783.56;4331316;32;32660;-91
2021/12/24 12:09:39;;;;;;;13.40;7.25;;;;;;;10.92;52.43;98770.06;4329216;32;33080;-91
2021/12/24 12:12:09;;;;;;;13.02;7.53;;;;;;;10.85;52.46;98774.87;4328408;32;32013;-91
2021/12/24 12:14:44;;;;;;;14.30;7.25;;;;;;;11.02;52.20;98771.22;4328786;32;33163;-90
2021/12/24 12:17:23;;;;;;;19.65;8.30;;;;;;;11.03;52.57;98768.47;4329779;32;32932;-90
2021/12/24 12:19:58;;;;;;;10.02;6.12;;;;;;;11.11;51.86;98775.06;4317402;32;32338;-91
2021/12/24 12:22:55;;;;;;;12.18;6.30;;;;;;;10.98;51.97;98782.91;4327401;32;32459;-90
2021/12/24 12:25:33;;;;;;;13.35;7.35;;;;;;;11.08;52.13;98772.63;4322504;32;32873;-90
2021/12/24 12:28:03;;;;;;;13.88;6.97;;;;;;;10.91;52.50;98784.22;4338064;33;33504;-90
2021/12/24 12:30:39;;;;;;;13.82;7.22;;;;;;;10.47;53.73;98778.03;4327043;33;33542;-90
2021/12/24 12:37:25;;;;;;;12.50;5.90;;;;;;;10.91;52.66;98785.06;4261207;33;33324;-88
2021/12/24 12:39:54;;;;;;;;;;;;;;;10.95;53.45;98778.66;4285561;33;33396;-89
2021/12/24 12:42:24;;;;;;;10.73;6.53;;;;;;;10.96;53.65;98780.34;4253482;33;33104;-88
2021/12/24 12:45:00;;;;;;;16.37;7.32;;;;;;;10.97;54.12;98787.34;4274726;33;33727;-89
2021/12/24 12:47:28;;;;;;;17.95;8.25;;;;;;;11.00;54.34;98792.44;4265946;33;33452;-88
2021/12/24 12:50:16;;;;;;;21.67;10.05;;;;;;;10.86;55.54;98783.66;4268278;33;33632;-88
2021/12/24 12:52:44;;;;;;;17.80;10.85;;;;;;;11.03;56.31;98781.69;4265801;33;33113;-89
2021/12/24 12:55:32;;;;;;;26.40;12.55;;;;;;;10.94;56.74;98787.53;4268164;33;34237;-91
2021/12/24 12:58:23;;;;;;;25.98;13.15;;;;;;;10.63;58.48;98795.59;4253834;33;33213;-91
2021/12/24 13:01:10;;;;;;;26.30;12.57;;;;;;;10.61;58.72;98787.78;4276851;33;32770;-90
2021/12/24 13:03:56;;;;;;;25.80;13.65;;;;;;;10.51;59.05;98787.47;4265715;33;32278;-91
2021/12/24 13:06:46;;;;;;;22.90;13.40;;;;;;;10.31;59.73;98785.19;4277419;33;32927;-91
2021/12/24 13:09:27;;;;;;;36.38;16.35;;;;;;;10.46;59.82;98781.63;4277175;33;34194;-91
2021/12/24 13:11:56;;;;;;;33.40;16.52;;;;;;;10.76;59.30;98773.66;4277146;33;33049;-91
2021/12/24 13:14:27;;;;;;;34.28;17.15;;;;;;;10.68;59.74;98775.06;4302158;33;32891;-91
2021/12/24 13:22:28;;;;;;;42.88;21.27;;;;;;;10.28;61.15;98788.00;4310568;33;32936;-91
2021/12/24 13:25:14;;;;;;;40.78;21.17;;;;;;;10.70;60.71;98789.03;4298433;33;32782;-91
2021/12/24 13:27:53;;;;;;;32.38;18.30;;;;;;;10.60;61.10;98809.84;4319680;33;32956;-91
2021/12/24 13:30:27;;;;;;;40.88;23.65;;;;;;;10.35;61.74;98802.53;4324102;33;32267;-91
2021/12/24 13:33:01;;;;;;;62.25;29.08;;;;;;;10.30;61.87;98803.72;4312091;33;33800;-91
2021/12/24 13:35:46;;;;;;;48.50;26.62;;;;;;;10.35;61.58;98797.25;4324381;33;33370;-91
2021/12/24 13:38:27;;;;;;;39.35;18.85;;;;;;;10.25;62.00;98804.00;4311971;33;32748;-91
2021/12/24 13:40:56;;;;;;;37.28;18.20;;;;;;;10.36;61.81;98817.44;4312543;33;32722;-91